sensor_id;sensor_type;location;lat;lon;timestamp;P1;durP1;ratioP1;P2;durP2;ratioP2
35312;SDS011;21425;50.454;30.466;2022-11-20T00:02:24;33.63;;;12.38;;
35312;SDS011;21425;50.454;30.466;2022-11-20T00:04:49;35.15;;;14.75;;
35312;SDS011;21425;50.454;30.466;2022-11-20T00:07:15;34.17;;;13.60;;
35312;SDS011;21425;50.454;30.466;2022-11-20T00:09:41;34.88;;;14.60;;
35312;SDS011;21425;50.454;30.466;2022-11-20T00:12:06;35.95;;;14.57;;
35312;SDS011;21425;50.454;30.466;2022-11-20T00:14:32;36.25;;;13.60;;
35312;SDS011;21425;50.454;30.466;2022-11-20T00:16:57;39.65;;;14.77;;
35312;SDS011;21425;50.454;30.466;2022-11-20T00:19:23;34.33;;;13.77;;
35312;SDS011;21425;50.454;30.466;2022-11-20T00:21:49;37.17;;;14.65;;
35312;SDS011;21425;50.454;30.466;2022-11-20T00:24:16;37.33;;;13.88;;
35312;SDS011;21425;50.454;30.466;2022-11-20T00:26:42;34.10;;;14.02;;
35312;SDS011;21425;50.454;30.466;2022-11-20T00:29:08;35.08;;;14.25;;
35312;SDS011;21425;50.454;30.466;2022-11-20T00:31:34;37.05;;;14.25;;
35312;SDS011;21425;50.454;30.466;2022-11-20T00:34:00;36.30;;;14.43;;
35312;SDS011;21425;50.454;30.466;2022-11-20T00:36:26;39.35;;;15.32;;
35312;SDS011;21425;50.454;30.466;2022-11-20T00:38:54;41.33;;;15.57;;
35312;SDS011;21425;50.454;30.466;2022-11-20T00:41:21;41.58;;;15.48;;
35312;SDS011;21425;50.454;30.466;2022-11-20T00:43:47;36.58;;;16.10;;
35312;SDS011;21425;50.454;30.466;2022-11-20T00:46:14;50.75;;;16.48;;
35312;SDS011;21425;50.454;30.466;2022-11-20T00:48:41;38.58;;;16.23;;
35312;SDS011;21425;50.454;30.466;2022-11-20T00:51:07;45.67;;;15.90;;
35312;SDS011;21425;50.454;30.466;2022-11-20T00:53:33;40.38;;;15.65;;
35312;SDS011;21425;50.454;30.466;2022-11-20T00:55:59;49.60;;;17.63;;
35312;SDS011;21425;50.454;30.466;2022-11-20T00:58:31;45.35;;;17.42;;
35312;SDS011;21425;50.454;30.466;2022-11-20T01:01:02;47.03;;;17.52;;
35312;SDS011;21425;50.454;30.466;2022-11-20T01:03:33;42.35;;;16.98;;
35312;SDS011;21425;50.454;30.466;2022-11-20T01:06:01;38.38;;;16.08;;
35312;SDS011;21425;50.454;30.466;2022-11-20T01:08:35;47.42;;;16.75;;
35312;SDS011;21425;50.454;30.466;2022-11-20T01:11:02;42.78;;;17.27;;
35312;SDS011;21425;50.454;30.466;2022-11-20T01:13:30;47.10;;;17.95;;
35312;SDS011;21425;50.454;30.466;2022-11-20T01:18:48;47.53;;;17.17;;
35312;SDS011;21425;50.454;30.466;2022-11-20T01:21:17;48.15;;;16.70;;
35312;SDS011;21425;50.454;30.466;2022-11-20T01:23:51;36.03;;;16.35;;
35312;SDS011;21425;50.454;30.466;2022-11-20T01:26:19;47.65;;;17.30;;
35312;SDS011;21425;50.454;30.466;2022-11-20T01:28:46;44.58;;;15.80;;
35312;SDS011;21425;50.454;30.466;2022-11-20T01:33:57;42.00;;;15.82;;
35312;SDS011;21425;50.454;30.466;2022-11-20T01:36:24;45.30;;;17.17;;
35312;SDS011;21425;50.454;30.466;2022-11-20T01:38:52;44.10;;;17.73;;
35312;SDS011;21425;50.454;30.466;2022-11-20T01:41:22;50.63;;;18.17;;
35312;SDS011;21425;50.454;30.466;2022-11-20T01:44:09;49.35;;;16.80;;
35312;SDS011;21425;50.454;30.466;2022-11-20T01:46:38;41.00;;;18.80;;
35312;SDS011;21425;50.454;30.466;2022-11-20T01:54:06;46.10;;;19.90;;
35312;SDS011;21425;50.454;30.466;2022-11-20T01:56:38;46.97;;;18.35;;
35312;SDS011;21425;50.454;30.466;2022-11-20T01:59:08;44.58;;;18.60;;
35312;SDS011;21425;50.454;30.466;2022-11-20T02:01:35;48.83;;;19.60;;
35312;SDS011;21425;50.454;30.466;2022-11-20T02:04:01;48.05;;;19.42;;
35312;SDS011;21425;50.454;30.466;2022-11-20T02:06:35;59.03;;;20.35;;
35312;SDS011;21425;50.454;30.466;2022-11-20T02:09:05;44.97;;;18.02;;
35312;SDS011;21425;50.454;30.466;2022-11-20T02:11:30;58.25;;;21.20;;
35312;SDS011;21425;50.454;30.466;2022-11-20T02:13:56;50.08;;;20.33;;
35312;SDS011;21425;50.454;30.466;2022-11-20T02:16:24;53.45;;;21.02;;
35312;SDS011;21425;50.454;30.466;2022-11-20T02:18:53;50.30;;;19.95;;
35312;SDS011;21425;50.454;30.466;2022-11-20T02:24:04;46.25;;;17.10;;
35312;SDS011;21425;50.454;30.466;2022-11-20T02:26:54;44.15;;;17.65;;
35312;SDS011;21425;50.454;30.466;2022-11-20T02:29:33;44.28;;;18.58;;
35312;SDS011;21425;50.454;30.466;2022-11-20T02:32:21;45.88;;;18.70;;
35312;SDS011;21425;50.454;30.466;2022-11-20T02:34:49;45.42;;;18.75;;
35312;SDS011;21425;50.454;30.466;2022-11-20T02:37:14;44.35;;;18.70;;
35312;SDS011;21425;50.454;30.466;2022-11-20T02:39:41;43.55;;;19.60;;
35312;SDS011;21425;50.454;30.466;2022-11-20T02:42:09;55.00;;;20.58;;
35312;SDS011;21425;50.454;30.466;2022-11-20T02:44:34;46.20;;;18.80;;
35312;SDS011;21425;50.454;30.466;2022-11-20T02:47:00;47.17;;;18.35;;
35312;SDS011;21425;50.454;30.466;2022-11-20T02:49:26;44.50;;;17.90;;
35312;SDS011;21425;50.454;30.466;2022-11-20T02:51:51;44.58;;;18.63;;
35312;SDS011;21425;50.454;30.466;2022-11-20T02:54:17;49.35;;;18.23;;
35312;SDS011;21425;50.454;30.466;2022-11-20T02:56:42;49.92;;;19.90;;
35312;SDS011;21425;50.454;30.466;2022-11-20T02:59:08;51.15;;;18.50;;
35312;SDS011;21425;50.454;30.466;2022-11-20T03:01:34;45.97;;;18.85;;
35312;SDS011;21425;50.454;30.466;2022-11-20T03:03:59;38.65;;;17.52;;
35312;SDS011;21425;50.454;30.466;2022-11-20T03:06:25;52.50;;;20.20;;
35312;SDS011;21425;50.454;30.466;2022-11-20T03:08:50;46.75;;;18.90;;
35312;SDS011;21425;50.454;30.466;2022-11-20T03:11:16;49.35;;;19.65;;
35312;SDS011;21425;50.454;30.466;2022-11-20T03:13:42;52.30;;;19.70;;
35312;SDS011;21425;50.454;30.466;2022-11-20T03:16:15;50.50;;;21.35;;
35312;SDS011;21425;50.454;30.466;2022-11-20T03:18:42;58.38;;;21.40;;
35312;SDS011;21425;50.454;30.466;2022-11-20T03:21:08;45.42;;;20.92;;
35312;SDS011;21425;50.454;30.466;2022-11-20T03:23:35;50.50;;;22.23;;
35312;SDS011;21425;50.454;30.466;2022-11-20T03:28:33;57.60;;;20.50;;
35312;SDS011;21425;50.454;30.466;2022-11-20T03:30:58;53.78;;;21.73;;
35312;SDS011;21425;50.454;30.466;2022-11-20T03:33:30;46.97;;;19.35;;
35312;SDS011;21425;50.454;30.466;2022-11-20T03:36:00;46.08;;;20.00;;
35312;SDS011;21425;50.454;30.466;2022-11-20T03:38:28;46.25;;;19.30;;
35312;SDS011;21425;50.454;30.466;2022-11-20T03:41:00;58.38;;;20.98;;
35312;SDS011;21425;50.454;30.466;2022-11-20T03:43:29;52.42;;;20.40;;
35312;SDS011;21425;50.454;30.466;2022-11-20T03:45:54;50.65;;;20.63;;
35312;SDS011;21425;50.454;30.466;2022-11-20T03:48:20;46.95;;;20.25;;
35312;SDS011;21425;50.454;30.466;2022-11-20T03:50:46;51.45;;;18.70;;
35312;SDS011;21425;50.454;30.466;2022-11-20T03:53:12;52.38;;;19.13;;
35312;SDS011;21425;50.454;30.466;2022-11-20T03:55:39;55.65;;;20.50;;
35312;SDS011;21425;50.454;30.466;2022-11-20T03:58:04;51.42;;;20.60;;
35312;SDS011;21425;50.454;30.466;2022-11-20T04:00:30;60.40;;;22.60;;
35312;SDS011;21425;50.454;30.466;2022-11-20T04:02:58;51.72;;;20.48;;
35312;SDS011;21425;50.454;30.466;2022-11-20T04:05:24;52.63;;;20.73;;
35312;SDS011;21425;50.454;30.466;2022-11-20T04:07:50;59.22;;;21.58;;
35312;SDS011;21425;50.454;30.466;2022-11-20T04:10:15;52.83;;;21.95;;
35312;SDS011;21425;50.454;30.466;2022-11-20T04:12:41;56.95;;;19.30;;
35312;SDS011;21425;50.454;30.466;2022-11-20T04:15:07;52.65;;;20.45;;
35312;SDS011;21425;50.454;30.466;2022-11-20T04:17:32;52.38;;;21.85;;
35312;SDS011;21425;50.454;30.466;2022-11-20T04:19:58;50.53;;;22.23;;
35312;SDS011;21425;50.454;30.466;2022-11-20T04:22:24;54.28;;;22.45;;
35312;SDS011;21425;50.454;30.466;2022-11-20T04:24:49;56.92;;;23.58;;
35312;SDS011;21425;50.454;30.466;2022-11-20T04:27:15;61.88;;;24.73;;
35312;SDS011;21425;50.454;30.466;2022-11-20T04:29:40;61.28;;;26.52;;
35312;SDS011;21425;50.454;30.466;2022-11-20T04:32:06;62.90;;;24.95;;
35312;SDS011;21425;50.454;30.466;2022-11-20T04:34:32;70.22;;;25.40;;
35312;SDS011;21425;50.454;30.466;2022-11-20T04:36:57;59.83;;;24.17;;
35312;SDS011;21425;50.454;30.466;2022-11-20T04:39:23;67.90;;;27.20;;
35312;SDS011;21425;50.454;30.466;2022-11-20T04:41:48;61.17;;;25.23;;
35312;SDS011;21425;50.454;30.466;2022-11-20T04:44:34;59.47;;;23.08;;
35312;SDS011;21425;50.454;30.466;2022-11-20T04:46:59;53.83;;;22.63;;
35312;SDS011;21425;50.454;30.466;2022-11-20T04:49:25;53.55;;;22.25;;
35312;SDS011;21425;50.454;30.466;2022-11-20T04:51:53;50.05;;;20.85;;
35312;SDS011;21425;50.454;30.466;2022-11-20T04:54:18;48.25;;;19.63;;
35312;SDS011;21425;50.454;30.466;2022-11-20T04:56:47;43.55;;;16.45;;
35312;SDS011;21425;50.454;30.466;2022-11-20T04:59:13;40.85;;;16.15;;
35312;SDS011;21425;50.454;30.466;2022-11-20T05:01:38;42.10;;;16.42;;
35312;SDS011;21425;50.454;30.466;2022-11-20T05:04:04;38.83;;;15.85;;
35312;SDS011;21425;50.454;30.466;2022-11-20T05:06:30;43.15;;;16.90;;
35312;SDS011;21425;50.454;30.466;2022-11-20T05:08:56;43.20;;;18.08;;
35312;SDS011;21425;50.454;30.466;2022-11-20T05:11:22;50.25;;;18.50;;
35312;SDS011;21425;50.454;30.466;2022-11-20T05:13:48;39.40;;;16.80;;
35312;SDS011;21425;50.454;30.466;2022-11-20T05:16:16;39.72;;;15.48;;
35312;SDS011;21425;50.454;30.466;2022-11-20T05:18:46;37.83;;;15.82;;
35312;SDS011;21425;50.454;30.466;2022-11-20T05:21:12;35.08;;;15.27;;
35312;SDS011;21425;50.454;30.466;2022-11-20T05:23:39;35.50;;;15.35;;
35312;SDS011;21425;50.454;30.466;2022-11-20T05:26:05;40.38;;;16.63;;
35312;SDS011;21425;50.454;30.466;2022-11-20T05:28:33;35.03;;;15.70;;
35312;SDS011;21425;50.454;30.466;2022-11-20T05:31:06;42.95;;;17.27;;
35312;SDS011;21425;50.454;30.466;2022-11-20T05:33:36;44.10;;;18.92;;
35312;SDS011;21425;50.454;30.466;2022-11-20T05:36:04;41.85;;;18.50;;
35312;SDS011;21425;50.454;30.466;2022-11-20T05:38:30;41.58;;;19.00;;
35312;SDS011;21425;50.454;30.466;2022-11-20T05:41:02;38.13;;;17.40;;
35312;SDS011;21425;50.454;30.466;2022-11-20T05:43:49;46.00;;;17.55;;
35312;SDS011;21425;50.454;30.466;2022-11-20T05:46:16;43.65;;;19.00;;
35312;SDS011;21425;50.454;30.466;2022-11-20T05:48:44;42.60;;;18.85;;
35312;SDS011;21425;50.454;30.466;2022-11-20T05:51:11;47.72;;;21.20;;
35312;SDS011;21425;50.454;30.466;2022-11-20T05:53:39;50.17;;;20.60;;
35312;SDS011;21425;50.454;30.466;2022-11-20T05:56:15;47.45;;;20.85;;
35312;SDS011;21425;50.454;30.466;2022-11-20T05:58:42;48.83;;;20.23;;
35312;SDS011;21425;50.454;30.466;2022-11-20T06:01:12;52.05;;;21.95;;
35312;SDS011;21425;50.454;30.466;2022-11-20T06:03:45;52.28;;;21.05;;
35312;SDS011;21425;50.454;30.466;2022-11-20T06:06:12;52.33;;;21.42;;
35312;SDS011;21425;50.454;30.466;2022-11-20T06:08:39;46.25;;;19.75;;
35312;SDS011;21425;50.454;30.466;2022-11-20T06:11:05;49.92;;;20.17;;
35312;SDS011;21425;50.454;30.466;2022-11-20T06:13:33;48.22;;;20.50;;
35312;SDS011;21425;50.454;30.466;2022-11-20T06:15:59;46.90;;;19.52;;
35312;SDS011;21425;50.454;30.466;2022-11-20T06:18:26;45.33;;;20.77;;
35312;SDS011;21425;50.454;30.466;2022-11-20T06:23:32;44.83;;;19.38;;
35312;SDS011;21425;50.454;30.466;2022-11-20T06:26:09;43.40;;;18.58;;
35312;SDS011;21425;50.454;30.466;2022-11-20T06:28:36;37.35;;;17.77;;
35312;SDS011;21425;50.454;30.466;2022-11-20T06:31:02;41.78;;;17.67;;
35312;SDS011;21425;50.454;30.466;2022-11-20T06:33:29;37.85;;;18.13;;
35312;SDS011;21425;50.454;30.466;2022-11-20T06:35:58;43.20;;;17.80;;
35312;SDS011;21425;50.454;30.466;2022-11-20T06:38:25;42.42;;;18.60;;
35312;SDS011;21425;50.454;30.466;2022-11-20T06:40:51;41.78;;;19.45;;
35312;SDS011;21425;50.454;30.466;2022-11-20T06:43:17;40.58;;;17.85;;
35312;SDS011;21425;50.454;30.466;2022-11-20T06:45:43;44.00;;;17.33;;
35312;SDS011;21425;50.454;30.466;2022-11-20T06:48:08;38.30;;;16.60;;
35312;SDS011;21425;50.454;30.466;2022-11-20T06:50:35;32.22;;;15.43;;
35312;SDS011;21425;50.454;30.466;2022-11-20T06:53:02;37.78;;;14.40;;
35312;SDS011;21425;50.454;30.466;2022-11-20T06:55:28;33.85;;;14.48;;
35312;SDS011;21425;50.454;30.466;2022-11-20T06:57:54;26.63;;;13.93;;
35312;SDS011;21425;50.454;30.466;2022-11-20T07:00:19;29.40;;;12.93;;
35312;SDS011;21425;50.454;30.466;2022-11-20T07:02:45;30.67;;;13.23;;
35312;SDS011;21425;50.454;30.466;2022-11-20T07:05:11;29.20;;;11.88;;
35312;SDS011;21425;50.454;30.466;2022-11-20T07:07:36;24.80;;;12.20;;
35312;SDS011;21425;50.454;30.466;2022-11-20T07:10:02;27.80;;;11.10;;
35312;SDS011;21425;50.454;30.466;2022-11-20T07:12:27;26.27;;;12.40;;
35312;SDS011;21425;50.454;30.466;2022-11-20T10:30:40;23.17;;;12.70;;
35312;SDS011;21425;50.454;30.466;2022-11-20T10:38:18;26.10;;;12.70;;
35312;SDS011;21425;50.454;30.466;2022-11-20T10:41:03;25.48;;;12.73;;
35312;SDS011;21425;50.454;30.466;2022-11-20T10:43:50;25.00;;;11.40;;
35312;SDS011;21425;50.454;30.466;2022-11-20T10:46:23;21.88;;;11.07;;
35312;SDS011;21425;50.454;30.466;2022-11-20T10:48:50;27.27;;;12.15;;
35312;SDS011;21425;50.454;30.466;2022-11-20T10:56:38;25.08;;;12.68;;
35312;SDS011;21425;50.454;30.466;2022-11-20T10:59:26;26.92;;;11.93;;
35312;SDS011;21425;50.454;30.466;2022-11-20T11:04:46;27.50;;;12.77;;
35312;SDS011;21425;50.454;30.466;2022-11-20T11:10:13;27.77;;;12.30;;
35312;SDS011;21425;50.454;30.466;2022-11-20T11:12:57;28.42;;;13.50;;
35312;SDS011;21425;50.454;30.466;2022-11-20T11:15:35;30.92;;;12.45;;
35312;SDS011;21425;50.454;30.466;2022-11-20T11:18:08;28.15;;;14.57;;
35312;SDS011;21425;50.454;30.466;2022-11-20T11:20:35;26.73;;;13.43;;
35312;SDS011;21425;50.454;30.466;2022-11-20T11:23:01;29.30;;;13.70;;
35312;SDS011;21425;50.454;30.466;2022-11-20T11:25:31;28.77;;;15.10;;
35312;SDS011;21425;50.454;30.466;2022-11-20T11:28:00;31.35;;;13.70;;
35312;SDS011;21425;50.454;30.466;2022-11-20T11:30:29;28.38;;;13.75;;
35312;SDS011;21425;50.454;30.466;2022-11-20T11:33:05;29.08;;;13.32;;
35312;SDS011;21425;50.454;30.466;2022-11-20T11:35:38;37.65;;;13.88;;
35312;SDS011;21425;50.454;30.466;2022-11-20T11:38:13;27.80;;;13.45;;
35312;SDS011;21425;50.454;30.466;2022-11-20T11:40:47;30.90;;;13.38;;
35312;SDS011;21425;50.454;30.466;2022-11-20T11:43:23;28.90;;;12.00;;
35312;SDS011;21425;50.454;30.466;2022-11-20T11:48:59;27.95;;;14.07;;
35312;SDS011;21425;50.454;30.466;2022-11-20T11:51:28;31.10;;;13.95;;
35312;SDS011;21425;50.454;30.466;2022-11-20T11:54:03;34.47;;;14.23;;
35312;SDS011;21425;50.454;30.466;2022-11-20T11:56:38;34.65;;;15.70;;
35312;SDS011;21425;50.454;30.466;2022-11-20T11:59:04;33.45;;;15.52;;
35312;SDS011;21425;50.454;30.466;2022-11-20T12:01:44;32.63;;;14.68;;
35312;SDS011;21425;50.454;30.466;2022-11-20T12:04:20;31.42;;;15.27;;
35312;SDS011;21425;50.454;30.466;2022-11-20T12:07:10;35.08;;;16.02;;
35312;SDS011;21425;50.454;30.466;2022-11-20T12:09:53;38.67;;;16.05;;
35312;SDS011;21425;50.454;30.466;2022-11-20T12:12:23;32.38;;;15.43;;
35312;SDS011;21425;50.454;30.466;2022-11-20T12:14:52;36.58;;;15.77;;
35312;SDS011;21425;50.454;30.466;2022-11-20T12:17:20;36.83;;;14.57;;
35312;SDS011;21425;50.454;30.466;2022-11-20T12:19:46;28.63;;;12.52;;
35312;SDS011;21425;50.454;30.466;2022-11-20T12:22:22;31.50;;;15.63;;
35312;SDS011;21425;50.454;30.466;2022-11-20T12:30:19;29.85;;;13.02;;
35312;SDS011;21425;50.454;30.466;2022-11-20T12:33:02;34.45;;;13.93;;
35312;SDS011;21425;50.454;30.466;2022-11-20T12:44:29;32.53;;;14.90;;
35312;SDS011;21425;50.454;30.466;2022-11-20T12:47:24;31.45;;;14.85;;
35312;SDS011;21425;50.454;30.466;2022-11-20T12:50:02;31.40;;;13.50;;
35312;SDS011;21425;50.454;30.466;2022-11-20T12:53:02;27.73;;;13.00;;
35312;SDS011;21425;50.454;30.466;2022-11-20T13:03:56;34.25;;;14.20;;
35312;SDS011;21425;50.454;30.466;2022-11-20T13:06:32;31.80;;;14.55;;
35312;SDS011;21425;50.454;30.466;2022-11-20T13:08:58;27.27;;;12.73;;
35312;SDS011;21425;50.454;30.466;2022-11-20T13:17:24;32.33;;;14.57;;
35312;SDS011;21425;50.454;30.466;2022-11-20T13:20:12;32.08;;;13.48;;
35312;SDS011;21425;50.454;30.466;2022-11-20T13:22:51;34.10;;;13.85;;
35312;SDS011;21425;50.454;30.466;2022-11-20T13:27:56;37.80;;;15.55;;
35312;SDS011;21425;50.454;30.466;2022-11-20T13:30:28;30.58;;;14.00;;
35312;SDS011;21425;50.454;30.466;2022-11-20T13:32:56;32.13;;;14.55;;
35312;SDS011;21425;50.454;30.466;2022-11-20T13:35:29;33.95;;;14.48;;
35312;SDS011;21425;50.454;30.466;2022-11-20T13:40:56;32.60;;;13.90;;
35312;SDS011;21425;50.454;30.466;2022-11-20T13:43:40;35.65;;;15.55;;
35312;SDS011;21425;50.454;30.466;2022-11-20T13:46:08;39.13;;;17.08;;
35312;SDS011;21425;50.454;30.466;2022-11-20T13:48:44;33.90;;;14.18;;
35312;SDS011;21425;50.454;30.466;2022-11-20T14:01:49;38.20;;;15.57;;
35312;SDS011;21425;50.454;30.466;2022-11-20T14:04:17;40.35;;;16.45;;
35312;SDS011;21425;50.454;30.466;2022-11-20T14:06:45;35.30;;;14.80;;
35312;SDS011;21425;50.454;30.466;2022-11-20T14:09:24;36.42;;;15.00;;
35312;SDS011;21425;50.454;30.466;2022-11-20T14:11:51;32.50;;;13.77;;
35312;SDS011;21425;50.454;30.466;2022-11-20T14:14:18;40.20;;;18.13;;
35312;SDS011;21425;50.454;30.466;2022-11-20T14:16:46;36.53;;;15.00;;
35312;SDS011;21425;50.454;30.466;2022-11-20T14:21:53;35.60;;;15.20;;
35312;SDS011;21425;50.454;30.466;2022-11-20T14:24:30;34.00;;;15.20;;
35312;SDS011;21425;50.454;30.466;2022-11-20T14:26:56;34.80;;;15.05;;
35312;SDS011;21425;50.454;30.466;2022-11-20T14:29:23;36.08;;;15.95;;
35312;SDS011;21425;50.454;30.466;2022-11-20T14:31:54;35.85;;;14.57;;
35312;SDS011;21425;50.454;30.466;2022-11-20T14:34:22;35.88;;;14.35;;
35312;SDS011;21425;50.454;30.466;2022-11-20T14:36:51;32.50;;;13.88;;
35312;SDS011;21425;50.454;30.466;2022-11-20T14:39:20;38.03;;;15.48;;
35312;SDS011;21425;50.454;30.466;2022-11-20T14:41:51;36.50;;;15.07;;
35312;SDS011;21425;50.454;30.466;2022-11-20T14:44:17;29.65;;;14.18;;
35312;SDS011;21425;50.454;30.466;2022-11-20T14:46:44;36.28;;;16.83;;
35312;SDS011;21425;50.454;30.466;2022-11-20T14:49:10;35.88;;;14.93;;
35312;SDS011;21425;50.454;30.466;2022-11-20T14:51:38;34.30;;;15.15;;
35312;SDS011;21425;50.454;30.466;2022-11-20T14:54:14;33.33;;;13.38;;
35312;SDS011;21425;50.454;30.466;2022-11-20T14:56:40;29.60;;;14.40;;
35312;SDS011;21425;50.454;30.466;2022-11-20T14:59:07;30.88;;;14.88;;
35312;SDS011;21425;50.454;30.466;2022-11-20T15:01:34;33.03;;;13.45;;
35312;SDS011;21425;50.454;30.466;2022-11-20T15:06:34;33.85;;;15.23;;
35312;SDS011;21425;50.454;30.466;2022-11-20T15:09:01;37.42;;;16.75;;
35312;SDS011;21425;50.454;30.466;2022-11-20T15:11:32;35.17;;;15.32;;
35312;SDS011;21425;50.454;30.466;2022-11-20T15:14:04;27.70;;;14.40;;
35312;SDS011;21425;50.454;30.466;2022-11-20T15:16:32;33.95;;;13.52;;
35312;SDS011;21425;50.454;30.466;2022-11-20T15:18:57;33.45;;;13.90;;
35312;SDS011;21425;50.454;30.466;2022-11-20T15:21:23;34.40;;;13.95;;
35312;SDS011;21425;50.454;30.466;2022-11-20T15:23:49;28.50;;;12.73;;
35312;SDS011;21425;50.454;30.466;2022-11-20T15:26:18;35.40;;;14.02;;
35312;SDS011;21425;50.454;30.466;2022-11-20T15:28:54;28.23;;;12.15;;
35312;SDS011;21425;50.454;30.466;2022-11-20T15:31:23;32.03;;;13.93;;
35312;SDS011;21425;50.454;30.466;2022-11-20T15:33:49;27.42;;;11.98;;
35312;SDS011;21425;50.454;30.466;2022-11-20T15:36:15;29.27;;;12.43;;
35312;SDS011;21425;50.454;30.466;2022-11-20T15:38:40;30.15;;;12.88;;
35312;SDS011;21425;50.454;30.466;2022-11-20T15:41:06;30.38;;;13.15;;
35312;SDS011;21425;50.454;30.466;2022-11-20T15:43:32;29.33;;;12.82;;
35312;SDS011;21425;50.454;30.466;2022-11-20T15:45:59;29.08;;;12.23;;
35312;SDS011;21425;50.454;30.466;2022-11-20T15:48:27;26.23;;;11.63;;
35312;SDS011;21425;50.454;30.466;2022-11-20T15:50:58;30.67;;;12.15;;
35312;SDS011;21425;50.454;30.466;2022-11-20T15:53:24;31.60;;;14.05;;
35312;SDS011;21425;50.454;30.466;2022-11-20T15:55:50;28.85;;;13.85;;
35312;SDS011;21425;50.454;30.466;2022-11-20T15:58:15;32.97;;;14.98;;
35312;SDS011;21425;50.454;30.466;2022-11-20T16:00:44;28.60;;;12.88;;
35312;SDS011;21425;50.454;30.466;2022-11-20T16:03:10;29.05;;;13.02;;
35312;SDS011;21425;50.454;30.466;2022-11-20T16:05:38;28.55;;;13.02;;
35312;SDS011;21425;50.454;30.466;2022-11-20T16:08:04;32.35;;;13.27;;
35312;SDS011;21425;50.454;30.466;2022-11-20T16:10:30;27.75;;;12.30;;
35312;SDS011;21425;50.454;30.466;2022-11-20T16:12:55;28.63;;;12.05;;
35312;SDS011;21425;50.454;30.466;2022-11-20T16:15:40;31.23;;;13.57;;
35312;SDS011;21425;50.454;30.466;2022-11-20T17:26:06;36.03;;;14.80;;
35312;SDS011;21425;50.454;30.466;2022-11-20T17:28:33;32.15;;;14.50;;
35312;SDS011;21425;50.454;30.466;2022-11-20T17:31:10;30.98;;;14.32;;
35312;SDS011;21425;50.454;30.466;2022-11-20T17:33:38;34.00;;;15.50;;
35312;SDS011;21425;50.454;30.466;2022-11-20T17:36:06;34.45;;;15.57;;
35312;SDS011;21425;50.454;30.466;2022-11-20T17:38:34;34.92;;;14.32;;
35312;SDS011;21425;50.454;30.466;2022-11-20T17:41:03;31.98;;;13.27;;
35312;SDS011;21425;50.454;30.466;2022-11-20T17:43:40;32.47;;;12.82;;
35312;SDS011;21425;50.454;30.466;2022-11-20T17:46:07;35.95;;;15.80;;
35312;SDS011;21425;50.454;30.466;2022-11-20T17:48:41;28.42;;;13.75;;
35312;SDS011;21425;50.454;30.466;2022-11-20T17:51:09;33.33;;;14.38;;
35312;SDS011;21425;50.454;30.466;2022-11-20T17:53:37;32.97;;;12.38;;
35312;SDS011;21425;50.454;30.466;2022-11-20T17:56:04;32.13;;;14.63;;
35312;SDS011;21425;50.454;30.466;2022-11-20T18:01:14;35.50;;;15.35;;
35312;SDS011;21425;50.454;30.466;2022-11-20T18:03:41;35.05;;;14.70;;
35312;SDS011;21425;50.454;30.466;2022-11-20T18:06:10;27.33;;;13.07;;
35312;SDS011;21425;50.454;30.466;2022-11-20T18:08:43;34.95;;;14.90;;
35312;SDS011;21425;50.454;30.466;2022-11-20T18:13:42;34.90;;;14.60;;
35312;SDS011;21425;50.454;30.466;2022-11-20T18:16:29;37.67;;;15.05;;
35312;SDS011;21425;50.454;30.466;2022-11-20T18:18:56;32.58;;;14.23;;
35312;SDS011;21425;50.454;30.466;2022-11-20T18:21:23;30.95;;;13.07;;
35312;SDS011;21425;50.454;30.466;2022-11-20T18:23:50;33.53;;;14.82;;
35312;SDS011;21425;50.454;30.466;2022-11-20T18:26:16;35.45;;;14.50;;
35312;SDS011;21425;50.454;30.466;2022-11-20T18:28:43;34.03;;;14.07;;
35312;SDS011;21425;50.454;30.466;2022-11-20T18:31:09;28.95;;;14.05;;
35312;SDS011;21425;50.454;30.466;2022-11-20T18:33:35;35.30;;;15.55;;
35312;SDS011;21425;50.454;30.466;2022-11-20T18:36:10;30.60;;;12.82;;
35312;SDS011;21425;50.454;30.466;2022-11-20T18:38:41;30.67;;;13.65;;
35312;SDS011;21425;50.454;30.466;2022-11-20T18:41:11;31.20;;;13.50;;
35312;SDS011;21425;50.454;30.466;2022-11-20T18:43:58;33.63;;;14.13;;
35312;SDS011;21425;50.454;30.466;2022-11-20T18:46:43;31.27;;;13.65;;
35312;SDS011;21425;50.454;30.466;2022-11-20T18:49:08;30.73;;;13.82;;
35312;SDS011;21425;50.454;30.466;2022-11-20T18:51:36;29.42;;;13.52;;
35312;SDS011;21425;50.454;30.466;2022-11-20T18:54:02;33.45;;;14.20;;
35312;SDS011;21425;50.454;30.466;2022-11-20T18:56:28;33.35;;;14.25;;
35312;SDS011;21425;50.454;30.466;2022-11-20T18:58:54;34.38;;;14.95;;
35312;SDS011;21425;50.454;30.466;2022-11-20T19:01:20;37.92;;;14.73;;
35312;SDS011;21425;50.454;30.466;2022-11-20T19:03:45;34.58;;;13.88;;
35312;SDS011;21425;50.454;30.466;2022-11-20T19:06:12;34.28;;;14.63;;
35312;SDS011;21425;50.454;30.466;2022-11-20T19:08:38;32.28;;;15.00;;
35312;SDS011;21425;50.454;30.466;2022-11-20T19:11:05;32.05;;;13.65;;
35312;SDS011;21425;50.454;30.466;2022-11-20T19:13:32;32.40;;;13.00;;
35312;SDS011;21425;50.454;30.466;2022-11-20T19:16:04;34.17;;;13.82;;
35312;SDS011;21425;50.454;30.466;2022-11-20T19:18:36;28.15;;;13.13;;
35312;SDS011;21425;50.454;30.466;2022-11-20T19:21:09;33.95;;;14.52;;
35312;SDS011;21425;50.454;30.466;2022-11-20T19:26:02;31.05;;;13.23;;
35312;SDS011;21425;50.454;30.466;2022-11-20T19:28:32;34.55;;;14.00;;
35312;SDS011;21425;50.454;30.466;2022-11-20T19:33:58;33.30;;;14.00;;
35312;SDS011;21425;50.454;30.466;2022-11-20T19:36:27;32.15;;;14.35;;
35312;SDS011;21425;50.454;30.466;2022-11-20T19:38:54;33.75;;;14.02;;
35312;SDS011;21425;50.454;30.466;2022-11-20T19:41:21;33.40;;;13.77;;
35312;SDS011;21425;50.454;30.466;2022-11-20T19:43:53;31.98;;;12.88;;
35312;SDS011;21425;50.454;30.466;2022-11-20T19:46:22;29.05;;;13.88;;
35312;SDS011;21425;50.454;30.466;2022-11-20T19:48:49;29.30;;;13.05;;
35312;SDS011;21425;50.454;30.466;2022-11-20T19:51:17;33.90;;;15.13;;
35312;SDS011;21425;50.454;30.466;2022-11-20T19:53:45;33.88;;;13.73;;
35312;SDS011;21425;50.454;30.466;2022-11-20T19:56:10;29.23;;;12.73;;
35312;SDS011;21425;50.454;30.466;2022-11-20T19:58:37;31.30;;;13.75;;
35312;SDS011;21425;50.454;30.466;2022-11-20T20:01:10;29.15;;;12.88;;
35312;SDS011;21425;50.454;30.466;2022-11-20T20:03:37;33.03;;;12.55;;
35312;SDS011;21425;50.454;30.466;2022-11-20T20:06:04;33.42;;;14.63;;
35312;SDS011;21425;50.454;30.466;2022-11-20T20:08:35;33.83;;;14.07;;
35312;SDS011;21425;50.454;30.466;2022-11-20T20:11:17;33.72;;;13.15;;
35312;SDS011;21425;50.454;30.466;2022-11-20T20:13:45;33.65;;;14.30;;
35312;SDS011;21425;50.454;30.466;2022-11-20T20:16:12;29.52;;;13.32;;
35312;SDS011;21425;50.454;30.466;2022-11-20T20:18:41;32.60;;;14.35;;
35312;SDS011;21425;50.454;30.466;2022-11-20T20:21:10;34.38;;;13.75;;
35312;SDS011;21425;50.454;30.466;2022-11-20T20:23:38;30.50;;;14.02;;